sensor_id;sensor_type;location;lat;lon;timestamp;temperature;humidity
17807;DHT22;9027;48.938;9.182;2023-02-11T00:00:32;0.30;99.90
17807;DHT22;9027;48.938;9.182;2023-02-11T00:02:06;0.30;99.90
17807;DHT22;9027;48.938;9.182;2023-02-11T00:03:38;0.30;99.90
17807;DHT22;9027;48.938;9.182;2023-02-11T00:05:09;0.30;99.90
17807;DHT22;9027;48.938;9.182;2023-02-11T00:06:40;0.30;99.90
17807;DHT22;9027;48.938;9.182;2023-02-11T00:08:12;0.20;99.90
17807;DHT22;9027;48.938;9.182;2023-02-11T00:09:46;0.20;99.90
17807;DHT22;9027;48.938;9.182;2023-02-11T00:11:19;0.20;99.90
17807;DHT22;9027;48.938;9.182;2023-02-11T00:12:51;0.20;99.90
17807;DHT22;9027;48.938;9.182;2023-02-11T00:14:23;0.20;99.90
17807;DHT22;9027;48.938;9.182;2023-02-11T00:15:55;0.20;99.90
17807;DHT22;9027;48.938;9.182;2023-02-11T00:17:29;0.20;99.90
17807;DHT22;9027;48.938;9.182;2023-02-11T00:19:02;0.20;99.90
17807;DHT22;9027;48.938;9.182;2023-02-11T00:20:37;0.20;99.90
17807;DHT22;9027;48.938;9.182;2023-02-11T00:22:08;0.10;99.90
17807;DHT22;9027;48.938;9.182;2023-02-11T00:23:41;0.10;99.90
17807;DHT22;9027;48.938;9.182;2023-02-11T00:25:13;0.10;99.90
17807;DHT22;9027;48.938;9.182;2023-02-11T00:26:43;0.10;99.90
17807;DHT22;9027;48.938;9.182;2023-02-11T00:28:15;0.10;99.90
17807;DHT22;9027;48.938;9.182;2023-02-11T00:29:47;0.10;99.90
17807;DHT22;9027;48.938;9.182;2023-02-11T00:31:20;0.10;99.90
17807;DHT22;9027;48.938;9.182;2023-02-11T00:32:53;0.00;99.90
17807;DHT22;9027;48.938;9.182;2023-02-11T00:34:25;0.00;99.90
17807;DHT22;9027;48.938;9.182;2023-02-11T00:35:57;0.00;99.90
17807;DHT22;9027;48.938;9.182;2023-02-11T00:37:29;0.00;99.90
17807;DHT22;9027;48.938;9.182;2023-02-11T00:39:01;0.00;99.90
17807;DHT22;9027;48.938;9.182;2023-02-11T00:40:32;0.00;99.90
17807;DHT22;9027;48.938;9.182;2023-02-11T00:42:03;0.00;99.90
17807;DHT22;9027;48.938;9.182;2023-02-11T00:43:36;0.00;99.90
17807;DHT22;9027;48.938;9.182;2023-02-11T00:45:08;0.00;99.90
17807;DHT22;9027;48.938;9.182;2023-02-11T00:46:42;0.00;99.90
17807;DHT22;9027;48.938;9.182;2023-02-11T00:48:16;-0.10;99.90
17807;DHT22;9027;48.938;9.182;2023-02-11T00:49:46;-0.10;99.90
17807;DHT22;9027;48.938;9.182;2023-02-11T00:51:18;-0.10;99.90
17807;DHT22;9027;48.938;9.182;2023-02-11T00:52:50;-0.10;99.90
17807;DHT22;9027;48.938;9.182;2023-02-11T00:54:22;-0.30;99.90
17807;DHT22;9027;48.938;9.182;2023-02-11T00:55:54;-0.40;99.90
17807;DHT22;9027;48.938;9.182;2023-02-11T00:57:25;-0.50;99.90
17807;DHT22;9027;48.938;9.182;2023-02-11T00:58:57;-0.60;99.90
17807;DHT22;9027;48.938;9.182;2023-02-11T01:00:29;-0.70;99.90
17807;DHT22;9027;48.938;9.182;2023-02-11T01:02:01;-0.80;99.90
17807;DHT22;9027;48.938;9.182;2023-02-11T01:03:34;-0.70;99.90
17807;DHT22;9027;48.938;9.182;2023-02-11T01:05:05;-0.60;99.90
17807;DHT22;9027;48.938;9.182;2023-02-11T01:06:37;-0.50;99.90
17807;DHT22;9027;48.938;9.182;2023-02-11T01:08:09;-0.40;99.90
17807;DHT22;9027;48.938;9.182;2023-02-11T01:09:40;-0.30;99.90
17807;DHT22;9027;48.938;9.182;2023-02-11T01:11:14;-0.30;99.90
17807;DHT22;9027;48.938;9.182;2023-02-11T01:12:49;-0.30;99.90
17807;DHT22;9027;48.938;9.182;2023-02-11T01:14:21;-0.30;99.90
17807;DHT22;9027;48.938;9.182;2023-02-11T01:15:55;-0.30;99.90
17807;DHT22;9027;48.938;9.182;2023-02-11T01:17:27;-0.30;99.90
17807;DHT22;9027;48.938;9.182;2023-02-11T01:19:00;-0.20;99.90
17807;DHT22;9027;48.938;9.182;2023-02-11T01:20:31;-0.20;99.90
17807;DHT22;9027;48.938;9.182;2023-02-11T01:22:04;-0.20;99.90
17807;DHT22;9027;48.938;9.182;2023-02-11T01:23:36;-0.20;99.90
17807;DHT22;9027;48.938;9.182;2023-02-11T01:25:09;-0.20;99.90
17807;DHT22;9027;48.938;9.182;2023-02-11T01:26:40;-0.20;99.90
17807;DHT22;9027;48.938;9.182;2023-02-11T01:28:15;-0.20;99.90
17807;DHT22;9027;48.938;9.182;2023-02-11T01:29:48;-0.20;99.90
17807;DHT22;9027;48.938;9.182;2023-02-11T01:31:19;-0.20;99.90
17807;DHT22;9027;48.938;9.182;2023-02-11T01:32:51;-0.30;99.90
17807;DHT22;9027;48.938;9.182;2023-02-11T01:34:24;-0.30;99.90
17807;DHT22;9027;48.938;9.182;2023-02-11T01:35:59;-0.30;99.90
17807;DHT22;9027;48.938;9.182;2023-02-11T01:37:32;-0.30;99.90
17807;DHT22;9027;48.938;9.182;2023-02-11T01:39:04;-0.30;99.90
17807;DHT22;9027;48.938;9.182;2023-02-11T01:40:38;-0.30;99.90
17807;DHT22;9027;48.938;9.182;2023-02-11T01:42:10;-0.30;99.90
17807;DHT22;9027;48.938;9.182;2023-02-11T01:43:47;-0.30;99.90
17807;DHT22;9027;48.938;9.182;2023-02-11T01:45:56;-0.30;99.90
17807;DHT22;9027;48.938;9.182;2023-02-11T01:47:29;-0.30;99.90
17807;DHT22;9027;48.938;9.182;2023-02-11T01:49:05;-0.30;99.90
17807;DHT22;9027;48.938;9.182;2023-02-11T01:50:39;-0.30;99.90
17807;DHT22;9027;48.938;9.182;2023-02-11T01:52:14;-0.20;99.90
17807;DHT22;9027;48.938;9.182;2023-02-11T01:53:50;-0.30;99.90
17807;DHT22;9027;48.938;9.182;2023-02-11T01:55:40;-0.20;99.90
17807;DHT22;9027;48.938;9.182;2023-02-11T01:57:33;-0.30;99.90
17807;DHT22;9027;48.938;9.182;2023-02-11T01:59:10;-0.40;99.90
17807;DHT22;9027;48.938;9.182;2023-02-11T02:00:44;-0.40;99.90
17807;DHT22;9027;48.938;9.182;2023-02-11T02:02:20;-0.40;99.90
17807;DHT22;9027;48.938;9.182;2023-02-11T02:03:56;-0.30;99.90
17807;DHT22;9027;48.938;9.182;2023-02-11T02:05:34;-0.30;99.90
17807;DHT22;9027;48.938;9.182;2023-02-11T02:07:12;-0.20;99.90
17807;DHT22;9027;48.938;9.182;2023-02-11T02:08:48;-0.10;99.90
17807;DHT22;9027;48.938;9.182;2023-02-11T02:10:25;-0.10;99.90
17807;DHT22;9027;48.938;9.182;2023-02-11T02:11:57;-0.10;99.90
17807;DHT22;9027;48.938;9.182;2023-02-11T02:13:31;-0.20;99.90
17807;DHT22;9027;48.938;9.182;2023-02-11T02:15:34;-0.30;99.90
17807;DHT22;9027;48.938;9.182;2023-02-11T02:17:08;-0.10;99.90
17807;DHT22;9027;48.938;9.182;2023-02-11T02:18:47;0.00;99.90
17807;DHT22;9027;48.938;9.182;2023-02-11T02:20:58;0.00;99.90
17807;DHT22;9027;48.938;9.182;2023-02-11T02:23:12;0.00;99.90
17807;DHT22;9027;48.938;9.182;2023-02-11T02:25:10;0.10;99.90
17807;DHT22;9027;48.938;9.182;2023-02-11T02:29:05;0.00;99.90
17807;DHT22;9027;48.938;9.182;2023-02-11T02:33:19;0.10;99.90
17807;DHT22;9027;48.938;9.182;2023-02-11T02:35:00;0.10;99.90
17807;DHT22;9027;48.938;9.182;2023-02-11T02:36:36;-0.10;99.90
17807;DHT22;9027;48.938;9.182;2023-02-11T02:38:13;-0.10;99.90
17807;DHT22;9027;48.938;9.182;2023-02-11T02:39:47;-0.10;99.90
17807;DHT22;9027;48.938;9.182;2023-02-11T02:41:22;0.00;99.90
17807;DHT22;9027;48.938;9.182;2023-02-11T02:42:56;0.00;99.90
17807;DHT22;9027;48.938;9.182;2023-02-11T02:44:30;-0.10;99.90
17807;DHT22;9027;48.938;9.182;2023-02-11T02:46:10;0.00;99.90
17807;DHT22;9027;48.938;9.182;2023-02-11T02:47:42;0.10;99.90
17807;DHT22;9027;48.938;9.182;2023-02-11T02:49:16;0.10;99.90
17807;DHT22;9027;48.938;9.182;2023-02-11T02:50:48;0.10;99.90
17807;DHT22;9027;48.938;9.182;2023-02-11T02:52:31;0.20;99.90
17807;DHT22;9027;48.938;9.182;2023-02-11T02:54:35;0.10;99.90
17807;DHT22;9027;48.938;9.182;2023-02-11T02:56:19;0.10;99.90
17807;DHT22;9027;48.938;9.182;2023-02-11T02:58:18;0.10;99.90
17807;DHT22;9027;48.938;9.182;2023-02-11T03:00:09;0.10;99.90
17807;DHT22;9027;48.938;9.182;2023-02-11T03:01:50;0.10;99.90
17807;DHT22;9027;48.938;9.182;2023-02-11T03:03:32;0.00;99.90
17807;DHT22;9027;48.938;9.182;2023-02-11T03:05:11;0.10;99.90
17807;DHT22;9027;48.938;9.182;2023-02-11T03:06:51;0.10;99.90
17807;DHT22;9027;48.938;9.182;2023-02-11T03:08:27;0.10;99.90
17807;DHT22;9027;48.938;9.182;2023-02-11T03:10:05;0.10;99.90
17807;DHT22;9027;48.938;9.182;2023-02-11T03:11:39;0.00;99.90
17807;DHT22;9027;48.938;9.182;2023-02-11T03:13:10;0.00;99.90
17807;DHT22;9027;48.938;9.182;2023-02-11T03:14:44;0.00;99.90
17807;DHT22;9027;48.938;9.182;2023-02-11T03:16:18;0.00;99.90
17807;DHT22;9027;48.938;9.182;2023-02-11T03:17:52;0.00;99.90
17807;DHT22;9027;48.938;9.182;2023-02-11T03:19:28;0.00;99.90
17807;DHT22;9027;48.938;9.182;2023-02-11T03:21:04;0.00;99.90
17807;DHT22;9027;48.938;9.182;2023-02-11T03:22:41;0.00;99.90
17807;DHT22;9027;48.938;9.182;2023-02-11T03:24:19;-0.20;99.90
17807;DHT22;9027;48.938;9.182;2023-02-11T03:25:55;-0.30;99.90
17807;DHT22;9027;48.938;9.182;2023-02-11T03:27:32;-0.20;99.90
17807;DHT22;9027;48.938;9.182;2023-02-11T03:29:12;-0.20;99.90
17807;DHT22;9027;48.938;9.182;2023-02-11T03:30:48;-0.10;99.90
17807;DHT22;9027;48.938;9.182;2023-02-11T03:32:24;-0.20;99.90
17807;DHT22;9027;48.938;9.182;2023-02-11T03:34:01;-0.20;99.90
17807;DHT22;9027;48.938;9.182;2023-02-11T03:35:40;-0.10;99.90
17807;DHT22;9027;48.938;9.182;2023-02-11T03:37:18;-0.10;99.90
17807;DHT22;9027;48.938;9.182;2023-02-11T03:38:54;-0.10;99.90
17807;DHT22;9027;48.938;9.182;2023-02-11T03:40:28;-0.10;99.90
17807;DHT22;9027;48.938;9.182;2023-02-11T03:42:03;-0.30;99.90
17807;DHT22;9027;48.938;9.182;2023-02-11T03:43:39;-0.30;99.90
17807;DHT22;9027;48.938;9.182;2023-02-11T03:45:15;-0.30;99.90
17807;DHT22;9027;48.938;9.182;2023-02-11T03:46:50;-0.20;99.90
17807;DHT22;9027;48.938;9.182;2023-02-11T03:48:25;-0.10;99.90
17807;DHT22;9027;48.938;9.182;2023-02-11T03:50:01;-0.10;99.90
17807;DHT22;9027;48.938;9.182;2023-02-11T03:51:34;0.00;99.90
17807;DHT22;9027;48.938;9.182;2023-02-11T03:53:09;0.10;99.90
17807;DHT22;9027;48.938;9.182;2023-02-11T03:54:42;0.10;99.90
17807;DHT22;9027;48.938;9.182;2023-02-11T03:56:18;0.10;99.90
17807;DHT22;9027;48.938;9.182;2023-02-11T03:57:51;0.20;99.90
17807;DHT22;9027;48.938;9.182;2023-02-11T03:59:23;0.20;99.90
17807;DHT22;9027;48.938;9.182;2023-02-11T04:00:55;0.20;99.90
17807;DHT22;9027;48.938;9.182;2023-02-11T04:02:29;0.10;99.90
17807;DHT22;9027;48.938;9.182;2023-02-11T04:04:01;0.10;99.90
17807;DHT22;9027;48.938;9.182;2023-02-11T04:05:33;0.20;99.90
17807;DHT22;9027;48.938;9.182;2023-02-11T04:07:05;0.20;99.90
17807;DHT22;9027;48.938;9.182;2023-02-11T04:08:37;0.30;99.90
17807;DHT22;9027;48.938;9.182;2023-02-11T04:10:10;0.30;99.90
17807;DHT22;9027;48.938;9.182;2023-02-11T04:11:42;0.30;99.90
17807;DHT22;9027;48.938;9.182;2023-02-11T04:13:13;0.30;99.90
17807;DHT22;9027;48.938;9.182;2023-02-11T04:14:45;0.40;99.90
17807;DHT22;9027;48.938;9.182;2023-02-11T04:16:16;0.40;99.90
17807;DHT22;9027;48.938;9.182;2023-02-11T04:17:48;0.40;99.90
17807;DHT22;9027;48.938;9.182;2023-02-11T04:19:20;0.40;99.90
17807;DHT22;9027;48.938;9.182;2023-02-11T04:20:51;0.40;99.90
17807;DHT22;9027;48.938;9.182;2023-02-11T04:22:22;0.40;99.90
17807;DHT22;9027;48.938;9.182;2023-02-11T04:23:56;0.40;99.90
17807;DHT22;9027;48.938;9.182;2023-02-11T04:25:27;0.30;99.90
17807;DHT22;9027;48.938;9.182;2023-02-11T04:26:59;0.40;99.90
17807;DHT22;9027;48.938;9.182;2023-02-11T04:28:30;0.40;99.90
17807;DHT22;9027;48.938;9.182;2023-02-11T04:30:03;0.30;99.90
17807;DHT22;9027;48.938;9.182;2023-02-11T04:31:35;0.20;99.90
17807;DHT22;9027;48.938;9.182;2023-02-11T04:33:06;0.20;99.90
17807;DHT22;9027;48.938;9.182;2023-02-11T04:34:38;0.30;99.90
17807;DHT22;9027;48.938;9.182;2023-02-11T04:36:09;0.30;99.90
17807;DHT22;9027;48.938;9.182;2023-02-11T04:37:41;0.40;99.90
17807;DHT22;9027;48.938;9.182;2023-02-11T04:39:14;0.50;99.90
17807;DHT22;9027;48.938;9.182;2023-02-11T04:40:46;0.50;99.90
17807;DHT22;9027;48.938;9.182;2023-02-11T04:42:18;0.50;99.90
17807;DHT22;9027;48.938;9.182;2023-02-11T04:43:49;0.60;99.90
17807;DHT22;9027;48.938;9.182;2023-02-11T04:45:20;0.60;99.90
17807;DHT22;9027;48.938;9.182;2023-02-11T04:46:52;0.50;99.90
17807;DHT22;9027;48.938;9.182;2023-02-11T04:48:25;0.50;99.90
17807;DHT22;9027;48.938;9.182;2023-02-11T04:49:57;0.60;99.90
17807;DHT22;9027;48.938;9.182;2023-02-11T04:51:28;0.60;99.90
17807;DHT22;9027;48.938;9.182;2023-02-11T04:52:59;0.70;99.90
17807;DHT22;9027;48.938;9.182;2023-02-11T04:54:32;0.70;99.90
17807;DHT22;9027;48.938;9.182;2023-02-11T04:56:04;0.70;99.90
17807;DHT22;9027;48.938;9.182;2023-02-11T04:57:35;0.70;99.90
17807;DHT22;9027;48.938;9.182;2023-02-11T04:59:06;0.70;99.90
17807;DHT22;9027;48.938;9.182;2023-02-11T05:00:38;0.80;99.90
17807;DHT22;9027;48.938;9.182;2023-02-11T05:02:10;0.70;99.90
17807;DHT22;9027;48.938;9.182;2023-02-11T05:03:42;0.70;99.90
17807;DHT22;9027;48.938;9.182;2023-02-11T05:05:14;0.50;99.90
17807;DHT22;9027;48.938;9.182;2023-02-11T05:06:46;0.30;99.90
17807;DHT22;9027;48.938;9.182;2023-02-11T05:08:17;0.20;99.90
17807;DHT22;9027;48.938;9.182;2023-02-11T05:09:50;0.20;99.90
17807;DHT22;9027;48.938;9.182;2023-02-11T05:11:23;0.30;99.90
17807;DHT22;9027;48.938;9.182;2023-02-11T05:12:55;0.50;99.90
17807;DHT22;9027;48.938;9.182;2023-02-11T05:14:27;0.60;99.90
17807;DHT22;9027;48.938;9.182;2023-02-11T05:15:58;0.60;99.90
17807;DHT22;9027;48.938;9.182;2023-02-11T05:17:29;0.70;99.90
17807;DHT22;9027;48.938;9.182;2023-02-11T05:19:00;0.80;99.90
17807;DHT22;9027;48.938;9.182;2023-02-11T05:20:32;0.80;99.90
17807;DHT22;9027;48.938;9.182;2023-02-11T05:22:03;0.80;99.90
17807;DHT22;9027;48.938;9.182;2023-02-11T05:23:36;0.80;99.90
17807;DHT22;9027;48.938;9.182;2023-02-11T05:25:08;0.90;99.90
17807;DHT22;9027;48.938;9.182;2023-02-11T05:26:40;0.90;99.90
17807;DHT22;9027;48.938;9.182;2023-02-11T05:28:12;0.90;99.90
17807;DHT22;9027;48.938;9.182;2023-02-11T05:29:43;1.00;99.90
17807;DHT22;9027;48.938;9.182;2023-02-11T05:31:15;0.90;99.90
17807;DHT22;9027;48.938;9.182;2023-02-11T05:32:46;0.90;99.90
17807;DHT22;9027;48.938;9.182;2023-02-11T05:34:18;0.80;99.90
17807;DHT22;9027;48.938;9.182;2023-02-11T05:35:50;0.90;99.90
17807;DHT22;9027;48.938;9.182;2023-02-11T05:37:22;0.90;99.90
17807;DHT22;9027;48.938;9.182;2023-02-11T05:38:54;1.00;99.90
17807;DHT22;9027;48.938;9.182;2023-02-11T05:40:27;1.00;99.90
17807;DHT22;9027;48.938;9.182;2023-02-11T05:41:58;1.00;99.90
17807;DHT22;9027;48.938;9.182;2023-02-11T05:43:30;1.10;99.90
17807;DHT22;9027;48.938;9.182;2023-02-11T05:45:05;1.10;99.90
17807;DHT22;9027;48.938;9.182;2023-02-11T05:46:37;1.10;99.90
17807;DHT22;9027;48.938;9.182;2023-02-11T05:48:09;1.20;99.90
17807;DHT22;9027;48.938;9.182;2023-02-11T05:49:40;1.10;99.90
17807;DHT22;9027;48.938;9.182;2023-02-11T05:51:12;1.10;99.90
17807;DHT22;9027;48.938;9.182;2023-02-11T05:52:44;1.10;99.90
17807;DHT22;9027;48.938;9.182;2023-02-11T05:54:16;1.10;99.90
17807;DHT22;9027;48.938;9.182;2023-02-11T05:55:49;1.10;99.90
17807;DHT22;9027;48.938;9.182;2023-02-11T05:57:22;1.20;99.90
17807;DHT22;9027;48.938;9.182;2023-02-11T05:58:53;1.10;99.90
17807;DHT22;9027;48.938;9.182;2023-02-11T06:00:26;1.10;99.90
17807;DHT22;9027;48.938;9.182;2023-02-11T06:01:57;1.20;99.90
17807;DHT22;9027;48.938;9.182;2023-02-11T06:03:29;1.20;99.90
17807;DHT22;9027;48.938;9.182;2023-02-11T06:05:01;1.20;99.90
17807;DHT22;9027;48.938;9.182;2023-02-11T06:06:33;1.30;99.90
17807;DHT22;9027;48.938;9.182;2023-02-11T06:08:05;1.30;99.90
17807;DHT22;9027;48.938;9.182;2023-02-11T06:09:37;1.20;99.90
17807;DHT22;9027;48.938;9.182;2023-02-11T06:11:10;1.20;99.90
17807;DHT22;9027;48.938;9.182;2023-02-11T06:12:42;1.20;99.90
17807;DHT22;9027;48.938;9.182;2023-02-11T06:14:14;1.10;99.90
17807;DHT22;9027;48.938;9.182;2023-02-11T06:15:55;1.00;99.90
17807;DHT22;9027;48.938;9.182;2023-02-11T06:17:27;0.90;99.90
17807;DHT22;9027;48.938;9.182;2023-02-11T06:19:01;0.90;99.90
17807;DHT22;9027;48.938;9.182;2023-02-11T06:20:33;1.00;99.90
17807;DHT22;9027;48.938;9.182;2023-02-11T06:22:05;1.10;99.90
17807;DHT22;9027;48.938;9.182;2023-02-11T06:23:37;1.10;99.90
17807;DHT22;9027;48.938;9.182;2023-02-11T06:25:09;1.20;99.90
17807;DHT22;9027;48.938;9.182;2023-02-11T06:26:43;1.30;99.90
17807;DHT22;9027;48.938;9.182;2023-02-11T06:28:15;1.40;99.90
17807;DHT22;9027;48.938;9.182;2023-02-11T06:29:47;1.40;99.90
17807;DHT22;9027;48.938;9.182;2023-02-11T06:31:19;1.40;99.90
17807;DHT22;9027;48.938;9.182;2023-02-11T06:32:51;1.50;99.90
17807;DHT22;9027;48.938;9.182;2023-02-11T06:34:22;1.50;99.90
17807;DHT22;9027;48.938;9.182;2023-02-11T06:35:54;1.50;99.90
17807;DHT22;9027;48.938;9.182;2023-02-11T06:37:26;1.30;99.90
17807;DHT22;9027;48.938;9.182;2023-02-11T06:38:58;1.40;99.90
17807;DHT22;9027;48.938;9.182;2023-02-11T06:40:30;1.40;99.90
17807;DHT22;9027;48.938;9.182;2023-02-11T06:42:02;1.40;99.90
17807;DHT22;9027;48.938;9.182;2023-02-11T06:43:34;1.40;99.90
17807;DHT22;9027;48.938;9.182;2023-02-11T06:45:07;1.50;99.90
17807;DHT22;9027;48.938;9.182;2023-02-11T06:46:40;1.50;99.90
17807;DHT22;9027;48.938;9.182;2023-02-11T06:48:12;1.60;99.90
17807;DHT22;9027;48.938;9.182;2023-02-11T06:49:44;1.50;99.90
17807;DHT22;9027;48.938;9.182;2023-02-11T06:51:16;1.50;99.90
17807;DHT22;9027;48.938;9.182;2023-02-11T06:52:48;1.50;99.90
17807;DHT22;9027;48.938;9.182;2023-02-11T06:54:20;1.50;99.90
17807;DHT22;9027;48.938;9.182;2023-02-11T06:55:52;1.50;99.90
17807;DHT22;9027;48.938;9.182;2023-02-11T06:57:25;1.50;99.90
17807;DHT22;9027;48.938;9.182;2023-02-11T06:58:57;1.60;99.90
17807;DHT22;9027;48.938;9.182;2023-02-11T07:00:29;1.60;99.90
17807;DHT22;9027;48.938;9.182;2023-02-11T07:02:01;1.70;99.90
17807;DHT22;9027;48.938;9.182;2023-02-11T07:03:33;1.70;99.90
17807;DHT22;9027;48.938;9.182;2023-02-11T07:05:06;1.70;99.90
17807;DHT22;9027;48.938;9.182;2023-02-11T07:06:38;1.80;99.90
17807;DHT22;9027;48.938;9.182;2023-02-11T07:08:11;1.80;99.90
17807;DHT22;9027;48.938;9.182;2023-02-11T07:09:43;1.80;99.90
17807;DHT22;9027;48.938;9.182;2023-02-11T07:11:20;1.80;99.90
17807;DHT22;9027;48.938;9.182;2023-02-11T07:12:55;1.90;99.90
17807;DHT22;9027;48.938;9.182;2023-02-11T07:14:27;1.90;99.90
17807;DHT22;9027;48.938;9.182;2023-02-11T07:16:04;1.90;99.90
17807;DHT22;9027;48.938;9.182;2023-02-11T07:17:36;1.90;99.90
17807;DHT22;9027;48.938;9.182;2023-02-11T07:19:08;1.90;99.90
17807;DHT22;9027;48.938;9.182;2023-02-11T07:20:41;1.90;99.90
17807;DHT22;9027;48.938;9.182;2023-02-11T07:22:13;1.90;99.90
17807;DHT22;9027;48.938;9.182;2023-02-11T07:23:45;1.90;99.90
17807;DHT22;9027;48.938;9.182;2023-02-11T07:25:20;1.90;99.90
17807;DHT22;9027;48.938;9.182;2023-02-11T07:26:52;1.80;99.90
17807;DHT22;9027;48.938;9.182;2023-02-11T07:28:25;1.80;99.90
17807;DHT22;9027;48.938;9.182;2023-02-11T07:29:57;1.90;99.90
17807;DHT22;9027;48.938;9.182;2023-02-11T07:31:30;1.90;99.90
17807;DHT22;9027;48.938;9.182;2023-02-11T07:33:01;1.90;99.90
17807;DHT22;9027;48.938;9.182;2023-02-11T07:34:32;1.90;99.90
17807;DHT22;9027;48.938;9.182;2023-02-11T07:36:06;2.00;99.90
17807;DHT22;9027;48.938;9.182;2023-02-11T07:37:37;1.90;99.90
17807;DHT22;9027;48.938;9.182;2023-02-11T07:39:09;1.90;99.90
17807;DHT22;9027;48.938;9.182;2023-02-11T07:40:41;1.90;99.90
17807;DHT22;9027;48.938;9.182;2023-02-11T07:42:13;1.80;99.90
17807;DHT22;9027;48.938;9.182;2023-02-11T07:43:47;1.70;99.90
17807;DHT22;9027;48.938;9.182;2023-02-11T07:45:19;1.70;99.90
17807;DHT22;9027;48.938;9.182;2023-02-11T07:46:50;1.80;99.90
17807;DHT22;9027;48.938;9.182;2023-02-11T07:48:22;1.90;99.90
17807;DHT22;9027;48.938;9.182;2023-02-11T07:49:54;1.90;99.90
17807;DHT22;9027;48.938;9.182;2023-02-11T07:51:27;2.00;99.90
17807;DHT22;9027;48.938;9.182;2023-02-11T07:53:00;2.10;99.90
17807;DHT22;9027;48.938;9.182;2023-02-11T07:54:32;2.20;99.90
17807;DHT22;9027;48.938;9.182;2023-02-11T07:56:05;2.30;99.90
17807;DHT22;9027;48.938;9.182;2023-02-11T07:57:37;2.40;99.90
17807;DHT22;9027;48.938;9.182;2023-02-11T07:59:12;2.50;99.90
17807;DHT22;9027;48.938;9.182;2023-02-11T08:00:43;2.50;99.90
17807;DHT22;9027;48.938;9.182;2023-02-11T08:02:15;2.70;99.90
17807;DHT22;9027;48.938;9.182;2023-02-11T08:03:47;2.80;99.90
17807;DHT22;9027;48.938;9.182;2023-02-11T08:05:19;3.00;99.90
17807;DHT22;9027;48.938;9.182;2023-02-11T08:06:51;3.00;99.90
17807;DHT22;9027;48.938;9.182;2023-02-11T08:08:26;3.10;99.90
17807;DHT22;9027;48.938;9.182;2023-02-11T08:09:58;3.20;99.90
17807;DHT22;9027;48.938;9.182;2023-02-11T08:11:30;3.30;99.90
17807;DHT22;9027;48.938;9.182;2023-02-11T08:13:02;3.40;99.90
17807;DHT22;9027;48.938;9.182;2023-02-11T08:14:36;3.40;99.90
17807;DHT22;9027;48.938;9.182;2023-02-11T08:16:08;3.40;99.90
17807;DHT22;9027;48.938;9.182;2023-02-11T08:17:40;3.50;99.90
17807;DHT22;9027;48.938;9.182;2023-02-11T08:19:14;3.60;99.90
17807;DHT22;9027;48.938;9.182;2023-02-11T08:20:46;3.70;99.90
17807;DHT22;9027;48.938;9.182;2023-02-11T08:22:18;3.60;99.90
17807;DHT22;9027;48.938;9.182;2023-02-11T08:23:50;3.70;99.90
17807;DHT22;9027;48.938;9.182;2023-02-11T08:25:21;3.80;99.90
17807;DHT22;9027;48.938;9.182;2023-02-11T08:26:52;4.20;99.90
17807;DHT22;9027;48.938;9.182;2023-02-11T08:28:24;5.10;99.90
17807;DHT22;9027;48.938;9.182;2023-02-11T08:29:58;6.20;99.90
17807;DHT22;9027;48.938;9.182;2023-02-11T08:31:33;7.40;99.90
17807;DHT22;9027;48.938;9.182;2023-02-11T08:33:05;8.40;99.90
17807;DHT22;9027;48.938;9.182;2023-02-11T08:34:37;9.20;99.90
17807;DHT22;9027;48.938;9.182;2023-02-11T08:36:10;10.40;99.90
17807;DHT22;9027;48.938;9.182;2023-02-11T08:37:42;11.00;99.90
17807;DHT22;9027;48.938;9.182;2023-02-11T08:39:16;11.20;99.90
17807;DHT22;9027;48.938;9.182;2023-02-11T08:40:49;11.80;99.90
17807;DHT22;9027;48.938;9.182;2023-02-11T08:42:20;12.30;99.90
17807;DHT22;9027;48.938;9.182;2023-02-11T08:43:52;13.00;99.90
17807;DHT22;9027;48.938;9.182;2023-02-11T08:45:26;13.50;98.30
17807;DHT22;9027;48.938;9.182;2023-02-11T08:46:58;13.70;97.00
17807;DHT22;9027;48.938;9.182;2023-02-11T08:48:30;13.50;96.40
17807;DHT22;9027;48.938;9.182;2023-02-11T08:50:03;13.00;96.80
17807;DHT22;9027;48.938;9.182;2023-02-11T08:51:35;12.50;97.20
17807;DHT22;9027;48.938;9.182;2023-02-11T08:53:07;12.00;98.30
17807;DHT22;9027;48.938;9.182;2023-02-11T08:54:39;11.80;98.60
17807;DHT22;9027;48.938;9.182;2023-02-11T08:56:12;11.80;98.90
17807;DHT22;9027;48.938;9.182;2023-02-11T08:57:44;12.10;99.00
17807;DHT22;9027;48.938;9.182;2023-02-11T08:59:16;12.60;97.80
17807;DHT22;9027;48.938;9.182;2023-02-11T09:00:49;13.40;96.80
17807;DHT22;9027;48.938;9.182;2023-02-11T09:02:21;14.00;95.40
17807;DHT22;9027;48.938;9.182;2023-02-11T09:03:53;14.60;94.20
17807;DHT22;9027;48.938;9.182;2023-02-11T09:05:25;15.20;93.10
17807;DHT22;9027;48.938;9.182;2023-02-11T09:06:57;15.60;91.70
17807;DHT22;9027;48.938;9.182;2023-02-11T09:08:29;15.70;90.80
17807;DHT22;9027;48.938;9.182;2023-02-11T09:10:01;15.40;90.80
17807;DHT22;9027;48.938;9.182;2023-02-11T09:11:34;15.20;91.00
17807;DHT22;9027;48.938;9.182;2023-02-11T09:13:06;15.10;91.10
17807;DHT22;9027;48.938;9.182;2023-02-11T09:14:38;14.70;91.50
17807;DHT22;9027;48.938;9.182;2023-02-11T09:16:17;14.80;91.50
17807;DHT22;9027;48.938;9.182;2023-02-11T09:17:50;15.00;91.60
17807;DHT22;9027;48.938;9.182;2023-02-11T09:19:22;15.30;90.60
17807;DHT22;9027;48.938;9.182;2023-02-11T09:21:01;15.80;89.70
17807;DHT22;9027;48.938;9.182;2023-02-11T09:22:33;16.30;87.40
17807;DHT22;9027;48.938;9.182;2023-02-11T09:24:05;16.20;85.60
17807;DHT22;9027;48.938;9.182;2023-02-11T09:25:38;16.10;86.10
17807;DHT22;9027;48.938;9.182;2023-02-11T09:27:10;15.70;85.40
17807;DHT22;9027;48.938;9.182;2023-02-11T09:28:46;15.20;87.40
17807;DHT22;9027;48.938;9.182;2023-02-11T09:30:18;15.00;88.70
17807;DHT22;9027;48.938;9.182;2023-02-11T09:31:51;14.90;89.40
17807;DHT22;9027;48.938;9.182;2023-02-11T09:33:23;14.80;90.40
17807;DHT22;9027;48.938;9.182;2023-02-11T09:34:55;14.80;90.20
17807;DHT22;9027;48.938;9.182;2023-02-11T09:36:29;14.70;90.50
17807;DHT22;9027;48.938;9.182;2023-02-11T09:38:01;14.80;90.50
17807;DHT22;9027;48.938;9.182;2023-02-11T09:39:33;15.00;90.30
17807;DHT22;9027;48.938;9.182;2023-02-11T09:41:13;15.30;90.30
17807;DHT22;9027;48.938;9.182;2023-02-11T09:42:53;15.50;88.70
17807;DHT22;9027;48.938;9.182;2023-02-11T09:44:31;15.30;90.00
17807;DHT22;9027;48.938;9.182;2023-02-11T09:46:07;15.20;89.60
17807;DHT22;9027;48.938;9.182;2023-02-11T09:47:55;15.10;89.60
17807;DHT22;9027;48.938;9.182;2023-02-11T09:49:34;14.80;90.10
17807;DHT22;9027;48.938;9.182;2023-02-11T09:51:18;14.50;90.40
17807;DHT22;9027;48.938;9.182;2023-02-11T09:52:55;14.20;90.70
17807;DHT22;9027;48.938;9.182;2023-02-11T09:54:33;13.70;91.20
17807;DHT22;9027;48.938;9.182;2023-02-11T09:56:10;13.30;92.30
17807;DHT22;9027;48.938;9.182;2023-02-11T09:57:42;12.80;93.00
17807;DHT22;9027;48.938;9.182;2023-02-11T09:59:15;12.60;93.20
17807;DHT22;9027;48.938;9.182;2023-02-11T10:00:51;12.10;94.50
17807;DHT22;9027;48.938;9.182;2023-02-11T10:02:29;12.00;94.90
17807;DHT22;9027;48.938;9.182;2023-02-11T10:04:13;11.90;95.30
17807;DHT22;9027;48.938;9.182;2023-02-11T10:06:05;11.70;95.80
17807;DHT22;9027;48.938;9.182;2023-02-11T10:07:42;11.70;95.60
17807;DHT22;9027;48.938;9.182;2023-02-11T10:09:36;11.90;95.50
17807;DHT22;9027;48.938;9.182;2023-02-11T10:11:18;12.10;95.00
17807;DHT22;9027;48.938;9.182;2023-02-11T10:13:01;12.30;95.00
17807;DHT22;9027;48.938;9.182;2023-02-11T10:14:53;11.30;95.60